Time;durP1;ratioP1;P1;durP2;ratioP2;P2;SDS_P1;SDS_P2;PMS_P1;PMS_P2;Temp;Humidity;BMP_temperature;BMP_pressure;BME280_temperature;BME280_humidity;BME280_pressure;Samples;Min_cycle;Max_cycle;Signal;HPM_P1;HPM_P2
2021/11/28 00:01:38;;;;;;;10.02;6.10;;;4.00;99.90;;;;;;5080073;28;19907;-64
2021/11/28 00:04:03;;;;;;;8.45;5.45;;;4.10;99.90;;;;;;5082622;28;20016;-65
2021/11/28 00:06:30;;;;;;;11.13;6.35;;;4.10;99.90;;;;;;5052075;28;20089;-64
2021/11/28 00:11:44;;;;;;;5.90;4.30;;;4.10;99.90;;;;;;5073303;28;20032;-64
2021/11/28 00:14:14;;;;;;;6.13;4.43;;;4.10;99.90;;;;;;5072689;28;20108;-65
2021/11/28 00:16:40;;;;;;;7.88;5.10;;;4.20;99.90;;;;;;5072644;28;20068;-63
2021/11/28 00:19:07;;;;;;;6.97;5.15;;;4.20;99.90;;;;;;5073105;28;20020;-64
2021/11/28 00:21:33;;;;;;;6.25;4.18;;;4.30;99.90;;;;;;5077981;28;20477;-65
2021/11/28 00:23:59;;;;;;;8.38;4.78;;;4.30;99.90;;;;;;5093091;28;20099;-65
2021/11/28 00:26:25;;;;;;;10.15;3.85;;;4.30;99.90;;;;;;5074299;28;20469;-64
2021/11/28 00:28:51;;;;;;;6.57;4.15;;;4.20;99.90;;;;;;5092671;28;20338;-65
2021/11/28 00:31:17;;;;;;;6.60;3.92;;;4.10;99.90;;;;;;5092449;28;20031;-64
2021/11/28 00:33:43;;;;;;;8.15;4.53;;;4.10;99.90;;;;;;5092524;28;20483;-64
2021/11/28 00:36:09;;;;;;;5.72;4.00;;;4.10;99.90;;;;;;5074580;28;20077;-65
2021/11/28 00:38:35;;;;;;;7.72;4.47;;;4.10;99.90;;;;;;5091862;28;20059;-64
2021/11/28 00:41:01;;;;;;;6.18;3.90;;;4.20;99.90;;;;;;5074540;28;20028;-64
2021/11/28 00:43:26;;;;;;;6.53;4.63;;;4.10;99.90;;;;;;5091534;28;20130;-64
2021/11/28 00:45:52;;;;;;;9.68;4.43;;;3.90;99.90;;;;;;5092432;28;20454;-64
2021/11/28 00:48:18;;;;;;;8.45;4.68;;;4.00;99.90;;;;;;5091683;28;20028;-63
2021/11/28 00:50:45;;;;;;;8.15;4.35;;;4.10;99.90;;;;;;5074252;28;20384;-65
2021/11/28 00:53:13;;;;;;;5.13;3.33;;;4.10;99.90;;;;;;5092297;28;20016;-64
2021/11/28 00:55:38;;;;;;;5.22;3.45;;;4.10;99.90;;;;;;5075407;28;20428;-63
2021/11/28 00:58:05;;;;;;;5.80;3.80;;;4.00;99.90;;;;;;5053932;28;20082;-65
2021/11/28 01:00:30;;;;;;;6.55;3.75;;;4.00;99.90;;;;;;5071312;28;20020;-65
2021/11/28 01:02:56;;;;;;;8.60;4.03;;;4.00;99.90;;;;;;5071864;28;20025;-64
2021/11/28 01:05:22;;;;;;;6.68;4.05;;;3.90;99.90;;;;;;5071259;28;20449;-63
2021/11/28 01:07:48;;;;;;;9.50;4.40;;;4.00;99.90;;;;;;5053446;28;20081;-64
2021/11/28 01:10:14;;;;;;;9.32;4.00;;;4.10;99.90;;;;;;5071474;28;20024;-65
2021/11/28 01:12:41;;;;;;;8.23;4.60;;;4.10;99.90;;;;;;5053166;28;20102;-66
2021/11/28 01:15:08;;;;;;;7.00;3.95;;;3.90;99.90;;;;;;5071422;28;20454;-64
2021/11/28 01:17:34;;;;;;;9.15;4.63;;;3.90;99.90;;;;;;5071598;28;20028;-65
2021/11/28 01:20:01;;;;;;;7.57;4.60;;;3.90;99.90;;;;;;5071647;28;20139;-63
2021/11/28 01:22:27;;;;;;;6.18;4.18;;;3.90;99.90;;;;;;5049458;28;20037;-63
2021/11/28 01:24:52;;;;;;;7.40;3.65;;;3.90;99.90;;;;;;5050258;28;20454;-63
2021/11/28 01:27:18;;;;;;;9.77;4.13;;;3.90;99.90;;;;;;5049773;28;20425;-63
2021/11/28 01:29:44;;;;;;;4.53;3.60;;;4.10;99.90;;;;;;5051463;28;20048;-63
2021/11/28 01:32:11;;;;;;;8.40;4.07;;;4.10;99.90;;;;;;5051134;28;20021;-64
2021/11/28 01:34:37;;;;;;;5.75;4.25;;;4.10;99.90;;;;;;5051001;28;20104;-63
2021/11/28 01:37:05;;;;;;;6.28;4.00;;;4.20;99.90;;;;;;5051606;28;20413;-64
2021/11/28 01:39:31;;;;;;;5.93;4.22;;;4.30;99.90;;;;;;5050929;28;20029;-63
2021/11/28 01:41:57;;;;;;;5.68;3.42;;;4.20;99.90;;;;;;5050336;28;20414;-64
2021/11/28 01:44:22;;;;;;;8.25;4.47;;;4.10;99.90;;;;;;5050696;28;20045;-62
2021/11/28 01:46:48;;;;;;;5.88;3.53;;;4.10;99.90;;;;;;5051400;28;20025;-63
2021/11/28 01:49:15;;;;;;;8.25;3.83;;;4.10;99.90;;;;;;5051560;28;20029;-64
2021/11/28 01:51:41;;;;;;;8.38;3.85;;;4.10;99.90;;;;;;5049494;28;20072;-64
2021/11/28 01:54:13;;;;;;;6.65;3.88;;;4.30;99.90;;;;;;5051593;28;20439;-63
2021/11/28 01:56:44;;;;;;;9.10;3.85;;;4.30;99.90;;;;;;5050900;28;20142;-63
2021/11/28 01:59:12;;;;;;;7.80;3.47;;;4.30;99.90;;;;;;5051247;28;20021;-64
2021/11/28 02:01:38;;;;;;;8.23;4.22;;;4.40;99.90;;;;;;5050381;28;20141;-63
2021/11/28 02:04:07;;;;;;;9.18;4.32;;;4.40;99.90;;;;;;5051253;28;20061;-63
2021/11/28 02:06:32;;;;;;;6.32;3.72;;;4.30;99.90;;;;;;5050550;28;20060;-63
2021/11/28 02:08:59;;;;;;;6.03;3.80;;;4.30;99.90;;;;;;5050663;28;20455;-63
2021/11/28 02:11:25;;;;;;;9.50;4.00;;;4.30;99.90;;;;;;5050350;28;20528;-63
2021/11/28 02:13:51;;;;;;;5.72;4.18;;;4.30;99.90;;;;;;5051249;28;20025;-64
2021/11/28 02:16:17;;;;;;;6.03;4.30;;;4.20;99.90;;;;;;5055042;28;20040;-64
2021/11/28 02:18:43;;;;;;;5.60;4.22;;;4.20;99.90;;;;;;5052979;28;20036;-67
2021/11/28 02:21:10;;;;;;;8.45;4.40;;;4.20;99.90;;;;;;5057936;28;20051;-63
2021/11/28 02:23:36;;;;;;;6.47;4.00;;;4.30;99.90;;;;;;5056047;28;20020;-63
2021/11/28 02:26:06;;;;;;;8.40;4.78;;;4.30;99.90;;;;;;5073851;28;20029;-63
2021/11/28 02:28:33;;;;;;;9.90;4.57;;;4.40;99.90;;;;;;5074378;28;20033;-64
2021/11/28 02:30:59;;;;;;;7.90;3.70;;;4.20;99.90;;;;;;5056704;28;20028;-64
2021/11/28 02:33:25;;;;;;;9.57;4.10;;;4.30;99.90;;;;;;5056477;28;20369;-63
2021/11/28 02:35:51;;;;;;;8.38;4.25;;;4.20;99.90;;;;;;5074493;28;20020;-64
2021/11/28 02:38:16;;;;;;;7.78;4.30;;;3.90;99.90;;;;;;5056814;28;20060;-64
2021/11/28 02:40:44;;;;;;;17.65;4.97;;;4.10;99.90;;;;;;5073845;28;20032;-64
2021/11/28 02:43:10;;;;;;;6.80;3.85;;;4.30;99.90;;;;;;5075104;28;20028;-63
2021/11/28 02:45:37;;;;;;;9.65;4.05;;;4.30;99.90;;;;;;5074056;28;20060;-64
2021/11/28 02:48:08;;;;;;;6.43;4.07;;;4.20;99.90;;;;;;5056717;28;20028;-64
2021/11/28 02:50:34;;;;;;;7.32;4.97;;;4.20;99.90;;;;;;5073739;28;20024;-63
2021/11/28 02:53:04;;;;;;;5.65;3.75;;;4.20;99.90;;;;;;5074568;28;20044;-64
2021/11/28 02:55:34;;;;;;;7.53;4.55;;;4.30;99.90;;;;;;5055914;28;20497;-63
2021/11/28 02:58:00;;;;;;;7.53;3.58;;;4.20;99.90;;;;;;5074190;28;20480;-64
2021/11/28 03:00:29;;;;;;;6.32;3.92;;;4.20;99.90;;;;;;5073881;28;20029;-63
2021/11/28 03:02:55;;;;;;;9.70;4.75;;;4.20;99.90;;;;;;5074423;28;20020;-63
2021/11/28 03:05:20;;;;;;;5.55;3.63;;;4.20;99.90;;;;;;5074113;28;20024;-64
2021/11/28 03:07:46;;;;;;;4.90;3.47;;;4.30;99.90;;;;;;5073717;28;20105;-63
2021/11/28 03:10:49;;;;;;;6.53;3.88;;;4.20;99.90;;;;;;5074310;28;20028;-63
2021/11/28 03:13:28;;;;;;;6.43;3.83;;;4.10;99.90;;;;;;4976075;28;20125;-64
2021/11/28 03:15:56;;;;;;;7.70;3.70;;;4.20;99.90;;;;;;5047851;28;20059;-64
2021/11/28 03:18:24;;;;;;;6.07;3.50;;;4.30;99.90;;;;;;5074092;28;20024;-63
2021/11/28 03:20:53;;;;;;;6.43;3.72;;;4.20;99.90;;;;;;5073468;28;20020;-63
2021/11/28 03:23:20;;;;;;;6.28;4.10;;;4.10;99.90;;;;;;5054150;28;20013;-63
2021/11/28 03:25:46;;;;;;;9.27;4.13;;;4.10;99.90;;;;;;5035438;28;20068;-64
2021/11/28 03:28:16;;;;;;;7.80;3.22;;;4.20;99.90;;;;;;5053907;28;20021;-64
2021/11/28 03:30:44;;;;;;;7.97;3.72;;;4.10;99.90;;;;;;5035438;28;20055;-63
2021/11/28 03:33:10;;;;;;;8.23;3.80;;;4.10;99.90;;;;;;5053822;28;20053;-64
2021/11/28 03:35:36;;;;;;;9.02;3.88;;;4.10;99.90;;;;;;5052826;28;20071;-63
2021/11/28 03:38:03;;;;;;;6.20;3.70;;;4.10;99.90;;;;;;5053196;28;20491;-63
2021/11/28 03:40:29;;;;;;;9.43;3.75;;;4.20;99.90;;;;;;5053001;28;20025;-64
2021/11/28 03:42:55;;;;;;;13.25;5.32;;;4.10;99.90;;;;;;5053398;28;20021;-63
2021/11/28 03:45:20;;;;;;;9.50;3.97;;;4.10;99.90;;;;;;5053530;28;20050;-64
2021/11/28 03:47:47;;;;;;;7.50;3.63;;;4.10;99.90;;;;;;5034461;28;20031;-63
2021/11/28 03:50:13;;;;;;;10.65;5.20;;;4.10;99.90;;;;;;5053455;28;20108;-64
2021/11/28 03:52:39;;;;;;;6.63;3.67;;;4.10;99.90;;;;;;5035185;28;20024;-63
2021/11/28 03:55:07;;;;;;;7.15;4.00;;;4.20;99.90;;;;;;5053068;28;20025;-63
2021/11/28 03:57:33;;;;;;;10.13;4.95;;;4.10;99.90;;;;;;5052759;28;20032;-63
2021/11/28 03:59:58;;;;;;;6.85;3.75;;;4.00;99.90;;;;;;5035490;28;20025;-63
2021/11/28 04:02:24;;;;;;;6.80;4.20;;;4.00;99.90;;;;;;5053191;28;20044;-64
2021/11/28 04:04:50;;;;;;;7.13;4.13;;;4.00;99.90;;;;;;5052491;28;20021;-63
2021/11/28 04:07:15;;;;;;;6.20;4.07;;;3.80;99.90;;;;;;5053094;28;20025;-63
2021/11/28 04:09:41;;;;;;;9.23;4.03;;;3.80;99.90;;;;;;5034476;28;20013;-63
2021/11/28 04:12:07;;;;;;;6.75;4.30;;;3.90;99.90;;;;;;5035127;28;20059;-63
2021/11/28 04:14:33;;;;;;;8.48;4.28;;;3.90;99.90;;;;;;5052486;28;20037;-64
2021/11/28 04:16:59;;;;;;;9.07;4.53;;;4.00;99.90;;;;;;5052783;28;20047;-63
2021/11/28 04:19:24;;;;;;;11.65;4.65;;;4.00;99.90;;;;;;5052648;28;20374;-64
2021/11/28 04:21:50;;;;;;;7.25;4.07;;;4.00;99.90;;;;;;5042886;28;20097;-64
2021/11/28 04:24:16;;;;;;;7.45;5.13;;;4.00;99.90;;;;;;5072779;28;20021;-64
2021/11/28 04:26:42;;;;;;;12.68;5.65;;;4.10;99.90;;;;;;5054215;28;20515;-65
2021/11/28 04:29:08;;;;;;;7.95;4.65;;;4.00;99.90;;;;;;5054700;28;20421;-63
2021/11/28 04:31:33;;;;;;;9.43;4.85;;;4.10;99.90;;;;;;5072169;28;20099;-63
2021/11/28 04:33:59;;;;;;;5.30;3.88;;;4.10;99.90;;;;;;5072325;28;20458;-64
2021/11/28 04:36:25;;;;;;;9.10;5.35;;;4.10;99.90;;;;;;5072323;28;20032;-65
2021/11/28 04:38:51;;;;;;;11.32;4.78;;;4.20;99.90;;;;;;5053798;28;20338;-64
2021/11/28 04:41:16;;;;;;;8.88;4.32;;;4.10;99.90;;;;;;5072182;28;20021;-65
2021/11/28 04:43:42;;;;;;;7.60;4.97;;;4.20;99.90;;;;;;5053890;28;20078;-64
2021/11/28 04:46:08;;;;;;;8.65;5.05;;;4.20;99.90;;;;;;5072384;28;20449;-64
2021/11/28 04:48:33;;;;;;;8.88;4.55;;;4.20;99.90;;;;;;5053729;28;20470;-63
2021/11/28 04:51:00;;;;;;;7.10;4.75;;;4.20;99.90;;;;;;5072340;28;20027;-64
2021/11/28 04:53:25;;;;;;;10.50;4.07;;;4.20;99.90;;;;;;5054311;28;20028;-64
2021/11/28 04:55:51;;;;;;;11.90;4.97;;;4.20;99.90;;;;;;5053165;28;20074;-63
2021/11/28 04:58:17;;;;;;;7.38;4.22;;;4.20;99.90;;;;;;5054046;28;20032;-64
2021/11/28 05:00:42;;;;;;;9.68;4.20;;;4.20;99.90;;;;;;5053471;28;20082;-63
2021/11/28 05:03:08;;;;;;;8.98;5.28;;;4.20;99.90;;;;;;5053954;28;20024;-63
2021/11/28 05:05:34;;;;;;;7.47;4.72;;;4.10;99.90;;;;;;5071727;28;20489;-63
2021/11/28 05:07:59;;;;;;;10.30;6.15;;;4.10;99.90;;;;;;5071841;28;20408;-63
2021/11/28 05:10:25;;;;;;;9.40;4.85;;;4.20;99.90;;;;;;5071768;28;20043;-63
2021/11/28 05:12:51;;;;;;;7.32;5.22;;;4.30;99.90;;;;;;5070838;28;20487;-63
2021/11/28 05:15:18;;;;;;;5.90;4.88;;;4.30;99.90;;;;;;5053686;28;20020;-63
2021/11/28 05:17:43;;;;;;;7.00;5.38;;;4.30;99.90;;;;;;5071282;28;20032;-64
2021/11/28 05:20:09;;;;;;;8.00;4.95;;;4.30;99.90;;;;;;5071746;28;20029;-64
2021/11/28 05:22:36;;;;;;;9.48;4.88;;;4.40;99.90;;;;;;5055802;28;20072;-63
2021/11/28 05:25:02;;;;;;;9.82;5.18;;;4.40;99.90;;;;;;5051291;28;20455;-63
2021/11/28 05:27:28;;;;;;;9.38;5.07;;;4.40;99.90;;;;;;5033545;28;20447;-63
2021/11/28 05:29:54;;;;;;;8.68;5.10;;;4.40;99.90;;;;;;5032795;28;20071;-63
2021/11/28 05:32:19;;;;;;;8.63;4.88;;;4.30;99.90;;;;;;5051000;28;20032;-63
2021/11/28 05:34:45;;;;;;;10.00;5.93;;;4.30;99.90;;;;;;5050618;28;20410;-63
2021/11/28 05:37:11;;;;;;;9.57;4.93;;;4.40;99.90;;;;;;5051218;28;20033;-63
2021/11/28 05:39:37;;;;;;;11.63;6.95;;;4.30;99.90;;;;;;5050602;28;20029;-63
2021/11/28 05:42:03;;;;;;;10.88;5.88;;;4.20;99.90;;;;;;5051374;28;20024;-64
2021/11/28 05:44:29;;;;;;;9.60;5.03;;;4.20;99.90;;;;;;5033449;28;20032;-63
2021/11/28 05:46:55;;;;;;;9.90;6.55;;;4.30;99.90;;;;;;5050749;28;20143;-63
2021/11/28 05:49:21;;;;;;;9.13;5.40;;;4.20;99.90;;;;;;5050346;28;20017;-63
2021/11/28 05:51:47;;;;;;;9.23;5.55;;;4.20;99.90;;;;;;5032643;28;20096;-63
2021/11/28 05:54:12;;;;;;;12.93;6.40;;;4.10;99.90;;;;;;5046759;28;20028;-63
2021/11/28 05:56:38;;;;;;;7.63;5.72;;;4.20;99.90;;;;;;5070581;28;20031;-63
2021/11/28 05:59:04;;;;;;;8.38;5.80;;;4.20;99.90;;;;;;5071419;28;20094;-63
2021/11/28 06:01:29;;;;;;;8.98;5.93;;;4.30;99.90;;;;;;5070704;28;20017;-63
2021/11/28 06:03:55;;;;;;;10.35;5.97;;;4.30;99.90;;;;;;5070269;28;20347;-65
2021/11/28 06:06:20;;;;;;;10.75;5.68;;;4.20;99.90;;;;;;5053020;28;20101;-63
2021/11/28 06:08:46;;;;;;;9.95;5.82;;;4.30;99.90;;;;;;5070478;28;20020;-63
2021/11/28 06:11:12;;;;;;;12.63;5.80;;;4.50;99.90;;;;;;5053074;28;20210;-64
2021/11/28 06:13:37;;;;;;;9.48;6.25;;;4.40;99.90;;;;;;5052534;28;20066;-63
2021/11/28 06:16:05;;;;;;;10.38;6.82;;;4.40;99.90;;;;;;5070496;28;20440;-63
2021/11/28 06:18:31;;;;;;;9.73;6.40;;;4.40;99.90;;;;;;5071020;28;20017;-63
2021/11/28 06:20:57;;;;;;;9.18;5.43;;;4.40;99.90;;;;;;5071559;28;20385;-63
2021/11/28 06:23:22;;;;;;;12.43;7.22;;;4.40;99.90;;;;;;5091115;28;20103;-63
2021/11/28 06:25:48;;;;;;;8.88;5.72;;;4.40;99.90;;;;;;5090215;28;20077;-62
2021/11/28 06:28:14;;;;;;;9.35;5.80;;;4.40;99.90;;;;;;5090948;28;20035;-63
2021/11/28 06:30:40;;;;;;;9.68;5.38;;;4.40;99.90;;;;;;5090401;28;20016;-63
2021/11/28 06:33:06;;;;;;;10.95;6.07;;;4.40;99.90;;;;;;5091018;28;20021;-63
2021/11/28 06:35:32;;;;;;;8.13;5.75;;;4.60;99.90;;;;;;5090923;28;20066;-62
2021/11/28 06:37:58;;;;;;;9.27;5.47;;;4.50;99.90;;;;;;5090423;28;20125;-62
2021/11/28 06:40:24;;;;;;;12.38;6.05;;;4.50;99.90;;;;;;5089822;28;20132;-63
2021/11/28 06:42:49;;;;;;;12.68;6.28;;;4.40;99.90;;;;;;5069930;28;20090;-62
2021/11/28 06:45:15;;;;;;;10.25;5.82;;;4.30;99.90;;;;;;5070511;28;20074;-62
2021/11/28 06:47:41;;;;;;;8.30;6.15;;;4.20;99.90;;;;;;5070047;28;20051;-63
2021/11/28 06:50:07;;;;;;;11.43;6.82;;;4.10;99.90;;;;;;5064933;28;20032;-63
2021/11/28 06:52:33;;;;;;;11.30;6.90;;;4.00;99.90;;;;;;5090610;28;20051;-63
2021/11/28 06:54:59;;;;;;;8.40;6.25;;;4.00;99.90;;;;;;5071868;28;20024;-62
2021/11/28 06:57:26;;;;;;;10.38;6.70;;;4.00;99.90;;;;;;5090800;28;20461;-63
2021/11/28 06:59:52;;;;;;;11.35;6.93;;;4.10;99.90;;;;;;5071964;28;20418;-62
2021/11/28 07:02:17;;;;;;;11.15;7.20;;;4.10;99.90;;;;;;5094165;28;20134;-63
2021/11/28 07:04:43;;;;;;;12.95;7.38;;;4.00;99.90;;;;;;5075077;28;20454;-62
2021/11/28 07:07:10;;;;;;;10.68;7.07;;;4.00;99.90;;;;;;5059137;28;20027;-63
2021/11/28 07:09:36;;;;;;;10.73;6.80;;;4.00;99.90;;;;;;5094242;28;20020;-63
2021/11/28 07:12:02;;;;;;;11.85;8.02;;;4.10;99.90;;;;;;5093095;28;20031;-63
2021/11/28 07:14:27;;;;;;;9.63;6.35;;;4.00;99.90;;;;;;5093999;28;20020;-64
2021/11/28 07:16:53;;;;;;;10.43;6.47;;;4.00;99.90;;;;;;5058055;28;20135;-64
2021/11/28 07:19:19;;;;;;;9.48;6.28;;;3.90;99.90;;;;;;5094064;28;20034;-63
2021/11/28 07:21:44;;;;;;;11.88;7.18;;;3.90;99.90;;;;;;5093059;28;20055;-64
2021/11/28 07:24:10;;;;;;;10.73;7.15;;;4.10;99.90;;;;;;5093785;28;20055;-63
2021/11/28 07:26:36;;;;;;;11.35;6.70;;;4.00;99.90;;;;;;5093892;28;20030;-63
2021/11/28 07:29:02;;;;;;;11.52;6.65;;;4.10;99.90;;;;;;5093032;28;20093;-63
2021/11/28 07:31:27;;;;;;;9.68;6.93;;;4.00;99.90;;;;;;5093484;28;20024;-63
2021/11/28 07:33:53;;;;;;;10.18;6.40;;;4.00;99.90;;;;;;5093087;28;20028;-63
2021/11/28 07:36:19;;;;;;;11.57;7.10;;;4.10;99.90;;;;;;5093773;28;20458;-62
2021/11/28 07:38:45;;;;;;;11.57;7.13;;;4.00;99.90;;;;;;5093212;28;20089;-64
2021/11/28 07:41:11;;;;;;;10.30;7.03;;;4.00;99.90;;;;;;5093785;28;20020;-63
2021/11/28 07:43:37;;;;;;;12.48;6.65;;;4.10;99.90;;;;;;5093511;28;20403;-63
2021/11/28 07:46:03;;;;;;;12.15;6.90;;;4.00;99.90;;;;;;5093049;28;20034;-63
2021/11/28 07:48:30;;;;;;;9.35;6.28;;;4.00;99.90;;;;;;5093406;28;20365;-63
2021/11/28 07:50:58;;;;;;;9.93;6.68;;;3.90;99.90;;;;;;5092570;28;20031;-64
2021/11/28 07:53:26;;;;;;;10.10;6.40;;;3.80;99.90;;;;;;5075474;28;20020;-63
2021/11/28 07:55:53;;;;;;;10.00;7.22;;;3.90;99.90;;;;;;5092475;28;20063;-63
2021/11/28 07:58:19;;;;;;;9.90;6.63;;;3.90;99.90;;;;;;5093559;28;20476;-64
2021/11/28 08:00:45;;;;;;;12.75;7.93;;;4.00;99.90;;;;;;5092438;28;20396;-63
2021/11/28 08:03:11;;;;;;;8.68;6.47;;;4.10;99.90;;;;;;5093048;28;20032;-64
2021/11/28 08:05:37;;;;;;;9.55;6.30;;;4.10;99.90;;;;;;5092509;28;20090;-63
2021/11/28 08:08:04;;;;;;;10.10;7.05;;;4.10;99.90;;;;;;5081214;28;20024;-64
2021/11/28 08:10:31;;;;;;;8.43;6.72;;;4.10;99.90;;;;;;5072652;28;20031;-64
2021/11/28 08:12:57;;;;;;;9.48;6.65;;;4.10;99.90;;;;;;5071211;28;20062;-65
2021/11/28 08:15:22;;;;;;;10.90;6.90;;;4.20;99.90;;;;;;5073190;28;20016;-64
2021/11/28 08:17:49;;;;;;;8.02;6.38;;;4.10;99.90;;;;;;5071747;28;20025;-64
2021/11/28 08:20:16;;;;;;;13.73;6.05;;;4.10;99.90;;;;;;5072483;28;20048;-64
2021/11/28 08:22:43;;;;;;;7.95;6.32;;;4.10;99.90;;;;;;5072840;28;20430;-64
2021/11/28 08:25:11;;;;;;;8.50;6.35;;;4.20;99.90;;;;;;5072746;28;20016;-64
2021/11/28 08:27:37;;;;;;;8.55;6.30;;;4.30;99.90;;;;;;5054574;28;20029;-64
2021/11/28 08:30:11;;;;;;;12.30;6.40;;;4.30;99.90;;;;;;5071926;28;20028;-64
2021/11/28 08:32:39;;;;;;;12.63;7.20;;;4.30;99.90;;;;;;5072306;28;20323;-64
2021/11/28 08:35:06;;;;;;;15.73;6.90;;;4.30;99.90;;;;;;5071858;28;20036;-64
2021/11/28 08:37:32;;;;;;;9.00;6.47;;;4.30;99.90;;;;;;5054382;28;20039;-64
2021/11/28 08:39:57;;;;;;;8.25;6.18;;;4.10;99.90;;;;;;5071452;28;20336;-64
2021/11/28 08:42:24;;;;;;;11.70;7.05;;;4.30;99.90;;;;;;5072315;28;20020;-63
2021/11/28 08:44:49;;;;;;;10.32;6.47;;;4.30;99.90;;;;;;5071473;28;20063;-63
2021/11/28 08:47:15;;;;;;;8.38;6.07;;;4.20;99.90;;;;;;5071592;28;20029;-65
2021/11/28 08:49:41;;;;;;;8.85;5.97;;;4.20;99.90;;;;;;5072345;28;20078;-65
2021/11/28 08:52:07;;;;;;;8.32;6.53;;;4.20;99.90;;;;;;5071510;28;20020;-64
2021/11/28 08:54:33;;;;;;;9.35;6.55;;;4.30;99.90;;;;;;5071887;28;20119;-64
2021/11/28 08:57:00;;;;;;;10.52;6.32;;;4.40;99.90;;;;;;5053170;28;20029;-66
2021/11/28 08:59:28;;;;;;;9.45;5.97;;;4.40;99.90;;;;;;5071420;28;20374;-64
2021/11/28 09:01:53;;;;;;;8.00;6.32;;;4.30;99.90;;;;;;5053142;28;20066;-63
2021/11/28 09:04:19;;;;;;;14.38;6.90;;;4.20;99.90;;;;;;5053709;28;20461;-64
2021/11/28 09:06:44;;;;;;;8.80;6.72;;;4.30;99.90;;;;;;5071010;28;20107;-64
2021/11/28 09:09:10;;;;;;;9.35;6.25;;;4.30;99.90;;;;;;5053590;28;20025;-64
2021/11/28 09:11:36;;;;;;;10.48;5.80;;;4.30;99.90;;;;;;5071516;28;20021;-64
2021/11/28 09:14:02;;;;;;;13.10;6.63;;;4.40;99.90;;;;;;5070806;28;20027;-65
2021/11/28 09:16:27;;;;;;;9.05;5.97;;;4.60;99.90;;;;;;5071182;28;20039;-65
2021/11/28 09:19:17;;;;;;;7.55;6.30;;;4.70;99.90;;;;;;5070936;28;20427;-65
2021/11/28 09:21:42;;;;;;;11.32;6.20;;;4.70;99.90;;;;;;5070648;28;20048;-66
2021/11/28 09:26:51;;;;;;;9.10;6.85;;;4.70;99.90;;;;;;5070278;28;20125;-64
2021/11/28 09:29:19;;;;;;;10.48;6.63;;;4.60;99.90;;;;;;5070999;28;20070;-64
2021/11/28 09:31:45;;;;;;;9.13;6.03;;;4.60;99.90;;;;;;5070866;28;20021;-64
2021/11/28 09:34:11;;;;;;;10.10;6.47;;;4.50;99.90;;;;;;5070907;28;20458;-64
2021/11/28 09:36:37;;;;;;;10.68;6.22;;;4.60;99.90;;;;;;5084250;28;20024;-67
2021/11/28 09:39:04;;;;;;;9.80;6.60;;;4.60;99.90;;;;;;5088334;28;20028;-63
2021/11/28 09:41:35;;;;;;;9.35;7.45;;;4.60;99.90;;;;;;5070521;28;20330;-64
2021/11/28 09:44:07;;;;;;;10.65;6.57;;;4.60;99.90;;;;;;5070153;28;20427;-64
2021/11/28 09:46:33;;;;;;;;;;;4.60;99.90;;;;;;5053407;28;20025;-64
2021/11/28 09:49:02;;;;;;;10.02;6.97;;;4.50;99.90;;;;;;5052316;28;19958;-63
2021/11/28 09:51:28;;;;;;;10.30;7.30;;;4.50;99.90;;;;;;5070168;28;20024;-64
2021/11/28 09:54:03;;;;;;;11.02;7.22;;;4.60;99.90;;;;;;5077638;28;20023;-63
2021/11/28 09:56:34;;;;;;;8.82;7.30;;;4.50;99.90;;;;;;5052268;28;20315;-64
2021/11/28 09:59:02;;;;;;;10.93;7.88;;;4.40;99.90;;;;;;5052349;28;20032;-65
2021/11/28 10:01:29;;;;;;;8.93;7.28;;;4.30;99.90;;;;;;5051995;28;20058;-64
2021/11/28 10:03:55;;;;;;;10.77;7.43;;;4.20;99.90;;;;;;5071960;28;20066;-64
2021/11/28 10:06:21;;;;;;;10.38;6.70;;;4.30;99.90;;;;;;5088324;28;20035;-64
2021/11/28 10:08:47;;;;;;;11.10;6.70;;;4.40;99.90;;;;;;5052175;28;20032;-65
2021/11/28 10:11:19;;;;;;;14.13;8.57;;;4.50;99.90;;;;;;5070064;28;20110;-64
2021/11/28 10:13:47;;;;;;;14.43;8.25;;;4.50;99.90;;;;;;5070655;28;20082;-64
2021/11/28 10:16:13;;;;;;;12.88;7.47;;;4.70;99.90;;;;;;5070026;28;20042;-64
2021/11/28 10:18:40;;;;;;;11.30;7.65;;;4.60;99.90;;;;;;5070071;28;20120;-64
2021/11/28 10:21:06;;;;;;;9.73;7.45;;;4.60;99.90;;;;;;5068743;28;20028;-64
2021/11/28 10:23:31;;;;;;;11.75;8.30;;;4.40;99.90;;;;;;5079088;28;20024;-64
2021/11/28 10:26:14;;;;;;;12.63;10.05;;;4.40;99.90;;;;;;5082652;28;20115;-62
2021/11/28 10:29:04;;;;;;;11.27;8.65;;;4.50;99.90;;;;;;5074877;28;20062;-63
2021/11/28 10:31:29;;;;;;;13.52;8.95;;;4.70;99.90;;;;;;5076893;28;20029;-63
2021/11/28 10:34:15;;;;;;;17.58;8.98;;;4.60;99.90;;;;;;5069364;28;20067;-63
2021/11/28 10:36:41;;;;;;;15.13;8.68;;;4.60;99.90;;;;;;5069093;28;20025;-63
2021/11/28 10:39:15;;;;;;;11.45;8.82;;;4.50;99.90;;;;;;5071635;28;20035;-63
2021/11/28 10:41:55;;;;;;;11.73;8.52;;;4.40;99.90;;;;;;5086872;28;20530;-63
2021/11/28 10:44:26;;;;;;;11.15;8.23;;;4.60;99.90;;;;;;5062884;28;20017;-62
2021/11/28 10:47:04;;;;;;;10.70;8.27;;;4.60;99.90;;;;;;5073059;28;20028;-62
2021/11/28 10:49:29;;;;;;;16.27;8.05;;;4.50;99.90;;;;;;5074244;28;20040;-62
2021/11/28 10:52:07;;;;;;;11.00;8.05;;;4.70;99.90;;;;;;5062810;28;20024;-63
2021/11/28 10:54:42;;;;;;;13.68;8.40;;;4.60;99.90;;;;;;5091248;28;20024;-63
2021/11/28 10:57:07;;;;;;;13.90;8.40;;;4.70;99.90;;;;;;5065370;28;20143;-63
2021/11/28 10:59:38;;;;;;;12.20;8.23;;;4.90;99.90;;;;;;5090659;28;20438;-63
2021/11/28 11:02:27;;;;;;;10.93;8.00;;;4.90;99.90;;;;;;5061889;28;20461;-64
2021/11/28 11:04:56;;;;;;;12.05;7.13;;;4.90;99.90;;;;;;5074120;28;20024;-63
2021/11/28 11:07:22;;;;;;;10.38;8.00;;;4.80;99.90;;;;;;5074541;28;20059;-63
2021/11/28 11:09:50;;;;;;;9.65;7.88;;;4.90;99.90;;;;;;5091591;28;20525;-63
2021/11/28 11:12:20;;;;;;;11.88;6.97;;;4.80;99.90;;;;;;5092567;28;20060;-63
2021/11/28 11:14:46;;;;;;;11.02;7.72;;;4.90;99.90;;;;;;5073427;28;20033;-63
2021/11/28 11:17:12;;;;;;;10.32;6.93;;;4.60;99.90;;;;;;5079125;28;20050;-64
2021/11/28 11:19:46;;;;;;;8.23;6.53;;;4.80;99.90;;;;;;5086877;28;20032;-63
2021/11/28 11:22:30;;;;;;;9.68;6.65;;;4.90;99.90;;;;;;5067226;28;20329;-62
2021/11/28 11:25:01;;;;;;;10.23;6.00;;;4.80;99.90;;;;;;5085735;28;20490;-63
2021/11/28 11:27:33;;;;;;;7.60;5.65;;;4.90;99.90;;;;;;5072228;28;20123;-64
2021/11/28 11:30:04;;;;;;;9.82;6.20;;;4.90;99.90;;;;;;5075814;28;20024;-63
2021/11/28 11:32:50;;;;;;;8.43;5.90;;;4.80;99.90;;;;;;5075258;28;20029;-63
2021/11/28 11:35:22;;;;;;;9.70;6.50;;;4.90;99.90;;;;;;5067320;28;20042;-64
2021/11/28 11:37:48;;;;;;;;;;;5.00;99.90;;;;;;5069643;28;20024;-64
2021/11/28 11:40:16;;;;;;;13.05;6.88;;;5.10;99.90;;;;;;5071819;28;19908;-64
2021/11/28 11:42:44;;;;;;;9.52;6.47;;;5.20;99.90;;;;;;5066176;28;20099;-64
2021/11/28 11:45:13;;;;;;;8.27;6.93;;;5.30;99.90;;;;;;5079320;28;20047;-64
2021/11/28 11:47:39;;;;;;;12.73;6.63;;;5.30;99.90;;;;;;5063350;28;20024;-64
2021/11/28 11:50:07;;;;;;;13.05;6.93;;;5.30;99.90;;;;;;5072849;28;20034;-64
2021/11/28 11:52:33;;;;;;;10.02;6.60;;;5.20;99.90;;;;;;5074658;28;20028;-65
2021/11/28 11:55:01;;;;;;;11.70;7.13;;;5.30;99.90;;;;;;5089157;28;20023;-64
2021/11/28 11:57:33;;;;;;;11.25;6.15;;;5.30;99.90;;;;;;5073362;28;20040;-63
2021/11/28 12:00:20;;;;;;;11.13;6.00;;;5.20;99.90;;;;;;5071973;28;20390;-64
2021/11/28 12:02:53;;;;;;;9.10;5.90;;;5.20;99.90;;;;;;5054436;28;20094;-64
2021/11/28 12:05:25;;;;;;;8.40;5.43;;;5.20;99.90;;;;;;5054193;28;20469;-60
2021/11/28 12:08:25;;;;;;;9.00;5.80;;;5.20;99.90;;;;;;5073080;28;20417;-65
2021/11/28 12:10:53;;;;;;;9.00;6.32;;;5.20;99.90;;;;;;5018450;28;20058;-50
2021/11/28 12:13:25;;;;;;;9.65;6.10;;;6.30;99.90;;;;;;5071985;28;20164;-50
2021/11/28 12:15:53;;;;;;;10.52;5.97;;;7.90;99.90;;;;;;5071019;28;20466;-57
2021/11/28 12:18:34;;;;;;;9.73;5.97;;;7.60;99.90;;;;;;5071581;28;20462;-57
2021/11/28 12:21:06;;;;;;;8.05;4.97;;;7.20;99.90;;;;;;5071500;28;20029;-56
2021/11/28 12:23:51;;;;;;;;;;;6.90;99.90;;;;;;5073588;28;20098;-64
2021/11/28 12:26:29;;;;;;;10.25;5.25;;;6.70;99.90;;;;;;5073890;28;19970;-64
2021/11/28 12:28:56;;;;;;;6.22;4.78;;;6.20;99.90;;;;;;5055216;28;20342;-64
2021/11/28 12:31:29;;;;;;;6.40;5.05;;;6.00;99.90;;;;;;5077022;28;20032;-63
2021/11/28 12:33:55;;;;;;;6.63;5.03;;;5.90;99.90;;;;;;5080368;28;20029;-64
2021/11/28 12:36:39;;;;;;;6.57;4.97;;;5.80;99.90;;;;;;5071402;28;20055;-64
2021/11/28 12:39:06;;;;;;;7.68;5.03;;;5.70;99.90;;;;;;5074195;28;20111;-64
2021/11/28 12:41:44;;;;;;;10.32;5.65;;;5.60;99.90;;;;;;5073694;28;20040;-64
2021/11/28 12:44:11;;;;;;;9.15;5.53;;;5.60;99.90;;;;;;5091609;28;20024;-63
2021/11/28 12:46:43;;;;;;;6.97;5.40;;;5.50;99.90;;;;;;5091881;28;20484;-65
2021/11/28 12:49:30;;;;;;;8.20;5.05;;;5.40;99.90;;;;;;5075838;28;20034;-64
2021/11/28 12:52:14;;;;;;;7.85;5.03;;;5.40;99.90;;;;;;5080337;28;20028;-64
2021/11/28 12:54:41;;;;;;;7.85;5.15;;;5.40;99.90;;;;;;5066736;28;20043;-63
2021/11/28 12:57:19;;;;;;;6.75;4.38;;;5.30;99.90;;;;;;5075393;28;20068;-65
2021/11/28 13:00:30;;;;;;;8.00;5.13;;;5.20;99.90;;;;;;5073567;28;20407;-64
2021/11/28 13:03:07;;;;;;;6.32;4.82;;;5.20;99.90;;;;;;5086595;28;20054;-64
2021/11/28 13:05:46;;;;;;;9.88;5.68;;;5.20;99.90;;;;;;5089280;28;20028;-65